sensor_id;sensor_type;location;lat;lon;timestamp;pressure;altitude;pressure_sealevel;temperature;humidity
54978;BME280;40873;47.522;19.106;2023-03-13T00:01:22;100564.34;;;4.80;54.70
54978;BME280;40873;47.522;19.106;2023-03-13T00:03:50;100568.72;;;4.79;54.94
54978;BME280;40873;47.522;19.106;2023-03-13T00:06:17;100563.47;;;4.81;55.16
54978;BME280;40873;47.522;19.106;2023-03-13T00:08:44;100567.88;;;4.79;55.39
54978;BME280;40873;47.522;19.106;2023-03-13T00:11:13;100567.59;;;4.61;55.87
54978;BME280;40873;47.522;19.106;2023-03-13T00:13:41;100573.31;;;4.73;56.01
54978;BME280;40873;47.522;19.106;2023-03-13T00:16:14;100575.84;;;4.76;55.61
54978;BME280;40873;47.522;19.106;2023-03-13T00:18:46;100574.41;;;4.65;56.06
54978;BME280;40873;47.522;19.106;2023-03-13T00:21:18;100562.56;;;4.55;56.64
54978;BME280;40873;47.522;19.106;2023-03-13T00:23:45;100555.72;;;4.51;57.36
54978;BME280;40873;47.522;19.106;2023-03-13T00:26:15;100561.59;;;4.58;57.27
54978;BME280;40873;47.522;19.106;2023-03-13T00:28:43;100551.00;;;4.62;57.42
54978;BME280;40873;47.522;19.106;2023-03-13T00:31:14;100542.38;;;4.60;57.78
54978;BME280;40873;47.522;19.106;2023-03-13T00:33:43;100549.25;;;4.63;57.97
54978;BME280;40873;47.522;19.106;2023-03-13T00:36:16;100546.78;;;4.58;58.39
54978;BME280;40873;47.522;19.106;2023-03-13T00:38:43;100547.03;;;4.51;58.83
54978;BME280;40873;47.522;19.106;2023-03-13T00:41:16;100553.94;;;4.53;58.98
54978;BME280;40873;47.522;19.106;2023-03-13T00:43:44;100539.16;;;4.52;59.38
54978;BME280;40873;47.522;19.106;2023-03-13T00:46:14;100535.97;;;4.69;59.07
54978;BME280;40873;47.522;19.106;2023-03-13T00:48:41;100539.03;;;4.55;59.80
54978;BME280;40873;47.522;19.106;2023-03-13T00:51:09;100543.97;;;4.64;59.65
54978;BME280;40873;47.522;19.106;2023-03-13T00:53:35;100541.53;;;4.58;59.85
54978;BME280;40873;47.522;19.106;2023-03-13T00:56:07;100547.69;;;4.57;59.71
54978;BME280;40873;47.522;19.106;2023-03-13T00:58:37;100536.13;;;4.64;59.75
54978;BME280;40873;47.522;19.106;2023-03-13T01:01:12;100526.78;;;4.57;60.13
54978;BME280;40873;47.522;19.106;2023-03-13T01:03:41;100521.81;;;4.50;60.67
54978;BME280;40873;47.522;19.106;2023-03-13T01:06:11;100514.16;;;4.44;61.13
54978;BME280;40873;47.522;19.106;2023-03-13T01:08:38;100508.91;;;4.45;61.23
54978;BME280;40873;47.522;19.106;2023-03-13T01:11:09;100490.44;;;4.50;61.42
54978;BME280;40873;47.522;19.106;2023-03-13T01:13:36;100496.00;;;4.40;61.84
54978;BME280;40873;47.522;19.106;2023-03-13T01:16:05;100501.41;;;4.61;61.57
54978;BME280;40873;47.522;19.106;2023-03-13T01:18:34;100516.38;;;4.56;61.75
54978;BME280;40873;47.522;19.106;2023-03-13T01:21:02;100511.75;;;4.64;61.82
54978;BME280;40873;47.522;19.106;2023-03-13T01:23:30;100508.72;;;4.76;61.36
54978;BME280;40873;47.522;19.106;2023-03-13T01:25:57;100512.72;;;4.61;62.14
54978;BME280;40873;47.522;19.106;2023-03-13T01:28:25;100504.88;;;4.61;62.28
54978;BME280;40873;47.522;19.106;2023-03-13T01:30:55;100505.72;;;4.62;62.80
54978;BME280;40873;47.522;19.106;2023-03-13T01:33:22;100491.66;;;4.66;62.56
54978;BME280;40873;47.522;19.106;2023-03-13T01:35:49;100489.84;;;4.68;62.66
54978;BME280;40873;47.522;19.106;2023-03-13T01:38:16;100487.19;;;4.70;62.72
54978;BME280;40873;47.522;19.106;2023-03-13T01:40:46;100482.00;;;4.68;63.14
54978;BME280;40873;47.522;19.106;2023-03-13T01:43:27;100488.94;;;4.69;63.08
54978;BME280;40873;47.522;19.106;2023-03-13T01:49:06;100488.19;;;4.90;62.74
54978;BME280;40873;47.522;19.106;2023-03-13T01:54:16;100486.38;;;4.92;62.79
54978;BME280;40873;47.522;19.106;2023-03-13T01:56:51;100484.66;;;4.91;62.92
54978;BME280;40873;47.522;19.106;2023-03-13T01:59:23;100479.94;;;5.03;62.68
54978;BME280;40873;47.522;19.106;2023-03-13T02:01:54;100478.72;;;4.88;62.78
54978;BME280;40873;47.522;19.106;2023-03-13T02:04:23;100470.91;;;4.86;63.13
54978;BME280;40873;47.522;19.106;2023-03-13T02:06:57;100475.34;;;4.84;63.75
54978;BME280;40873;47.522;19.106;2023-03-13T02:09:28;100474.22;;;4.91;63.34
54978;BME280;40873;47.522;19.106;2023-03-13T02:12:04;100471.31;;;4.99;63.35
54978;BME280;40873;47.522;19.106;2023-03-13T02:14:34;100477.63;;;4.93;63.62
54978;BME280;40873;47.522;19.106;2023-03-13T02:17:03;100486.50;;;4.89;63.96
54978;BME280;40873;47.522;19.106;2023-03-13T02:19:40;100481.28;;;4.89;64.35
54978;BME280;40873;47.522;19.106;2023-03-13T02:27:33;100480.22;;;4.93;65.02
54978;BME280;40873;47.522;19.106;2023-03-13T02:30:00;100476.75;;;4.94;65.15
54978;BME280;40873;47.522;19.106;2023-03-13T02:32:28;100478.63;;;5.14;63.85
54978;BME280;40873;47.522;19.106;2023-03-13T02:35:01;100482.53;;;5.03;64.42
54978;BME280;40873;47.522;19.106;2023-03-13T02:37:29;100485.22;;;5.01;64.81
54978;BME280;40873;47.522;19.106;2023-03-13T02:40:00;100481.78;;;4.99;65.23
54978;BME280;40873;47.522;19.106;2023-03-13T02:42:27;100485.69;;;5.12;64.82
54978;BME280;40873;47.522;19.106;2023-03-13T02:44:55;100486.72;;;5.08;64.54
54978;BME280;40873;47.522;19.106;2023-03-13T02:47:23;100482.34;;;5.09;64.66
54978;BME280;40873;47.522;19.106;2023-03-13T02:49:50;100484.13;;;5.07;64.77
54978;BME280;40873;47.522;19.106;2023-03-13T02:54:46;100480.50;;;4.86;65.92
54978;BME280;40873;47.522;19.106;2023-03-13T02:57:16;100481.75;;;4.76;66.63
54978;BME280;40873;47.522;19.106;2023-03-13T02:59:43;100477.50;;;4.72;67.28
54978;BME280;40873;47.522;19.106;2023-03-13T03:02:10;100484.25;;;4.79;66.98
54978;BME280;40873;47.522;19.106;2023-03-13T03:04:37;100489.59;;;4.76;67.64
54978;BME280;40873;47.522;19.106;2023-03-13T03:07:04;100501.47;;;4.84;67.39
54978;BME280;40873;47.522;19.106;2023-03-13T03:09:31;100501.34;;;4.62;68.77
54978;BME280;40873;47.522;19.106;2023-03-13T03:11:58;100494.03;;;4.74;68.86
54978;BME280;40873;47.522;19.106;2023-03-13T03:14:25;100503.44;;;4.78;69.48
54978;BME280;40873;47.522;19.106;2023-03-13T03:16:52;100502.97;;;4.66;70.13
54978;BME280;40873;47.522;19.106;2023-03-13T03:19:19;100497.56;;;4.71;70.62
54978;BME280;40873;47.522;19.106;2023-03-13T03:21:46;100494.09;;;4.71;70.84
54978;BME280;40873;47.522;19.106;2023-03-13T03:24:15;100500.38;;;4.65;71.03
54978;BME280;40873;47.522;19.106;2023-03-13T03:26:42;100493.25;;;4.70;71.21
54978;BME280;40873;47.522;19.106;2023-03-13T03:29:08;100501.88;;;4.72;70.86
54978;BME280;40873;47.522;19.106;2023-03-13T03:31:36;100506.91;;;4.78;70.88
54978;BME280;40873;47.522;19.106;2023-03-13T03:34:03;100495.00;;;4.70;70.84
54978;BME280;40873;47.522;19.106;2023-03-13T03:36:31;100489.91;;;4.66;70.30
54978;BME280;40873;47.522;19.106;2023-03-13T03:38:57;100499.72;;;4.60;70.53
54978;BME280;40873;47.522;19.106;2023-03-13T03:41:25;100498.94;;;4.56;70.76
54978;BME280;40873;47.522;19.106;2023-03-13T03:43:51;100493.84;;;4.52;71.21
54978;BME280;40873;47.522;19.106;2023-03-13T03:46:18;100488.41;;;4.33;72.49
54978;BME280;40873;47.522;19.106;2023-03-13T03:48:45;100486.44;;;4.39;72.19
54978;BME280;40873;47.522;19.106;2023-03-13T03:51:13;100492.19;;;4.24;73.18
54978;BME280;40873;47.522;19.106;2023-03-13T03:53:40;100494.97;;;4.18;73.76
54978;BME280;40873;47.522;19.106;2023-03-13T03:56:07;100500.53;;;4.07;74.30
54978;BME280;40873;47.522;19.106;2023-03-13T03:58:34;100501.97;;;4.18;74.11
54978;BME280;40873;47.522;19.106;2023-03-13T04:01:01;100512.63;;;4.10;74.28
54978;BME280;40873;47.522;19.106;2023-03-13T04:03:28;100516.09;;;4.10;74.58
54978;BME280;40873;47.522;19.106;2023-03-13T04:05:55;100519.53;;;4.12;74.76
54978;BME280;40873;47.522;19.106;2023-03-13T04:08:22;100524.94;;;4.06;75.21
54978;BME280;40873;47.522;19.106;2023-03-13T04:10:50;100532.69;;;4.08;75.58
54978;BME280;40873;47.522;19.106;2023-03-13T04:13:17;100525.47;;;4.16;75.15
54978;BME280;40873;47.522;19.106;2023-03-13T04:15:44;100530.38;;;3.99;76.71
54978;BME280;40873;47.522;19.106;2023-03-13T04:18:11;100533.84;;;3.99;77.04
54978;BME280;40873;47.522;19.106;2023-03-13T04:20:38;100535.97;;;4.15;76.83
54978;BME280;40873;47.522;19.106;2023-03-13T04:23:05;100533.00;;;3.99;77.92
54978;BME280;40873;47.522;19.106;2023-03-13T04:25:35;100536.75;;;3.90;78.91
54978;BME280;40873;47.522;19.106;2023-03-13T04:28:02;100545.38;;;3.92;79.22
54978;BME280;40873;47.522;19.106;2023-03-13T04:30:29;100547.03;;;3.95;79.21
54978;BME280;40873;47.522;19.106;2023-03-13T04:32:56;100545.25;;;3.97;79.25
54978;BME280;40873;47.522;19.106;2023-03-13T04:35:23;100548.97;;;3.88;79.88
54978;BME280;40873;47.522;19.106;2023-03-13T04:37:50;100541.13;;;3.88;80.12
54978;BME280;40873;47.522;19.106;2023-03-13T04:40:17;100544.16;;;4.04;79.78
54978;BME280;40873;47.522;19.106;2023-03-13T04:42:44;100548.31;;;4.09;79.22
54978;BME280;40873;47.522;19.106;2023-03-13T04:45:15;100536.94;;;4.12;79.21
54978;BME280;40873;47.522;19.106;2023-03-13T04:47:42;100541.44;;;4.07;79.48
54978;BME280;40873;47.522;19.106;2023-03-13T04:50:09;100544.84;;;4.09;79.70
54978;BME280;40873;47.522;19.106;2023-03-13T04:52:36;100543.25;;;4.05;79.87
54978;BME280;40873;47.522;19.106;2023-03-13T04:55:03;100543.19;;;4.06;79.90
54978;BME280;40873;47.522;19.106;2023-03-13T04:57:30;100544.09;;;4.05;80.44
54978;BME280;40873;47.522;19.106;2023-03-13T04:59:57;100555.63;;;3.98;80.45
54978;BME280;40873;47.522;19.106;2023-03-13T05:02:25;100557.06;;;4.08;79.83
54978;BME280;40873;47.522;19.106;2023-03-13T05:04:52;100561.59;;;4.03;80.17
54978;BME280;40873;47.522;19.106;2023-03-13T05:07:18;100573.97;;;3.95;80.57
54978;BME280;40873;47.522;19.106;2023-03-13T05:09:45;100570.22;;;4.05;80.39
54978;BME280;40873;47.522;19.106;2023-03-13T05:12:12;100579.75;;;4.06;80.15
54978;BME280;40873;47.522;19.106;2023-03-13T05:14:39;100575.16;;;4.15;79.53
54978;BME280;40873;47.522;19.106;2023-03-13T05:17:06;100571.63;;;4.16;79.84
54978;BME280;40873;47.522;19.106;2023-03-13T05:19:33;100576.59;;;4.25;79.12
54978;BME280;40873;47.522;19.106;2023-03-13T05:22:00;100575.88;;;4.20;79.58
54978;BME280;40873;47.522;19.106;2023-03-13T05:24:27;100571.56;;;4.19;79.25
54978;BME280;40873;47.522;19.106;2023-03-13T05:26:54;100564.13;;;4.05;79.75
54978;BME280;40873;47.522;19.106;2023-03-13T05:29:21;100576.59;;;3.95;80.61
54978;BME280;40873;47.522;19.106;2023-03-13T05:31:48;100576.94;;;3.84;81.33
54978;BME280;40873;47.522;19.106;2023-03-13T05:34:15;100588.84;;;3.93;81.02
54978;BME280;40873;47.522;19.106;2023-03-13T05:36:42;100583.44;;;3.99;81.06
54978;BME280;40873;47.522;19.106;2023-03-13T05:39:09;100580.25;;;3.90;81.71
54978;BME280;40873;47.522;19.106;2023-03-13T05:41:36;100586.28;;;3.92;81.97
54978;BME280;40873;47.522;19.106;2023-03-13T05:44:03;100585.94;;;4.02;81.39
54978;BME280;40873;47.522;19.106;2023-03-13T05:46:30;100588.72;;;3.98;81.36
54978;BME280;40873;47.522;19.106;2023-03-13T05:48:58;100581.91;;;3.92;81.72
54978;BME280;40873;47.522;19.106;2023-03-13T05:51:28;100579.63;;;4.11;80.87
54978;BME280;40873;47.522;19.106;2023-03-13T05:53:55;100581.28;;;4.13;80.41
54978;BME280;40873;47.522;19.106;2023-03-13T05:56:22;100584.75;;;4.14;80.39
54978;BME280;40873;47.522;19.106;2023-03-13T05:58:49;100579.84;;;4.03;80.88
54978;BME280;40873;47.522;19.106;2023-03-13T06:01:15;100586.13;;;3.96;81.15
54978;BME280;40873;47.522;19.106;2023-03-13T06:03:42;100586.13;;;3.96;81.80
54978;BME280;40873;47.522;19.106;2023-03-13T06:06:09;100581.63;;;4.01;81.65
54978;BME280;40873;47.522;19.106;2023-03-13T06:08:36;100574.53;;;4.06;81.54
54978;BME280;40873;47.522;19.106;2023-03-13T06:11:03;100576.84;;;4.16;81.24
54978;BME280;40873;47.522;19.106;2023-03-13T06:13:31;100583.72;;;4.20;80.67
54978;BME280;40873;47.522;19.106;2023-03-13T06:15:57;100569.97;;;4.13;80.83
54978;BME280;40873;47.522;19.106;2023-03-13T06:18:25;100576.19;;;4.09;81.00
54978;BME280;40873;47.522;19.106;2023-03-13T06:21:00;100567.91;;;4.24;80.08
54978;BME280;40873;47.522;19.106;2023-03-13T06:23:28;100575.53;;;4.30;79.48
54978;BME280;40873;47.522;19.106;2023-03-13T06:25:55;100579.63;;;4.39;79.05
54978;BME280;40873;47.522;19.106;2023-03-13T06:28:22;100573.06;;;4.26;79.24
54978;BME280;40873;47.522;19.106;2023-03-13T06:30:49;100573.06;;;4.26;79.32
54978;BME280;40873;47.522;19.106;2023-03-13T06:33:16;100578.13;;;4.30;79.69
54978;BME280;40873;47.522;19.106;2023-03-13T06:35:43;100571.50;;;4.20;79.82
54978;BME280;40873;47.522;19.106;2023-03-13T06:38:25;100563.38;;;4.29;79.07
54978;BME280;40873;47.522;19.106;2023-03-13T06:40:52;100571.44;;;4.50;78.52
54978;BME280;40873;47.522;19.106;2023-03-13T06:43:20;100582.56;;;4.56;77.61
54978;BME280;40873;47.522;19.106;2023-03-13T06:45:47;100577.63;;;4.47;77.90
54978;BME280;40873;47.522;19.106;2023-03-13T06:48:14;100579.63;;;4.65;77.32
54978;BME280;40873;47.522;19.106;2023-03-13T06:50:42;100582.56;;;4.56;76.91
54978;BME280;40873;47.522;19.106;2023-03-13T06:53:27;100585.56;;;4.71;76.44
54978;BME280;40873;47.522;19.106;2023-03-13T06:55:54;100588.59;;;4.85;75.03
54978;BME280;40873;47.522;19.106;2023-03-13T06:58:21;100587.59;;;4.89;74.18
54978;BME280;40873;47.522;19.106;2023-03-13T07:00:59;100582.97;;;4.97;73.00
54978;BME280;40873;47.522;19.106;2023-03-13T07:03:31;100574.97;;;5.02;73.10
54978;BME280;40873;47.522;19.106;2023-03-13T07:05:58;100579.38;;;5.00;72.29
54978;BME280;40873;47.522;19.106;2023-03-13T07:08:26;100581.16;;;4.99;71.90
54978;BME280;40873;47.522;19.106;2023-03-13T07:10:58;100576.56;;;5.06;71.35
54978;BME280;40873;47.522;19.106;2023-03-13T07:13:25;100582.09;;;5.23;70.79
54978;BME280;40873;47.522;19.106;2023-03-13T07:15:53;100585.22;;;5.08;70.32
54978;BME280;40873;47.522;19.106;2023-03-13T07:18:21;100582.47;;;4.86;71.11
54978;BME280;40873;47.522;19.106;2023-03-13T07:20:56;100581.56;;;4.87;72.37
54978;BME280;40873;47.522;19.106;2023-03-13T07:23:28;100570.06;;;5.17;70.51
54978;BME280;40873;47.522;19.106;2023-03-13T07:26:00;100565.06;;;5.36;69.30
54978;BME280;40873;47.522;19.106;2023-03-13T07:28:28;100568.13;;;5.47;68.26
54978;BME280;40873;47.522;19.106;2023-03-13T07:31:25;100572.72;;;5.41;68.26
54978;BME280;40873;47.522;19.106;2023-03-13T07:33:53;100565.00;;;5.61;67.55
54978;BME280;40873;47.522;19.106;2023-03-13T07:36:22;100561.94;;;5.73;67.21
54978;BME280;40873;47.522;19.106;2023-03-13T07:38:50;100553.41;;;5.68;66.26
54978;BME280;40873;47.522;19.106;2023-03-13T07:41:18;100556.72;;;5.50;66.76
54978;BME280;40873;47.522;19.106;2023-03-13T07:43:46;100554.22;;;5.70;65.59
54978;BME280;40873;47.522;19.106;2023-03-13T07:46:15;100552.47;;;5.71;65.19
54978;BME280;40873;47.522;19.106;2023-03-13T07:48:45;100540.06;;;5.99;64.42
54978;BME280;40873;47.522;19.106;2023-03-13T07:51:14;100544.56;;;6.18;63.89
54978;BME280;40873;47.522;19.106;2023-03-13T07:53:43;100543.31;;;6.28;62.38
54978;BME280;40873;47.522;19.106;2023-03-13T07:56:11;100538.53;;;6.16;61.96
54978;BME280;40873;47.522;19.106;2023-03-13T07:58:40;100533.38;;;6.36;61.63
54978;BME280;40873;47.522;19.106;2023-03-13T08:01:23;100533.31;;;6.38;61.28
54978;BME280;40873;47.522;19.106;2023-03-13T08:03:53;100532.13;;;6.67;60.28
54978;BME280;40873;47.522;19.106;2023-03-13T08:06:23;100524.75;;;6.76;59.66
54978;BME280;40873;47.522;19.106;2023-03-13T08:08:51;100519.69;;;6.92;58.67
54978;BME280;40873;47.522;19.106;2023-03-13T08:11:20;100517.81;;;6.96;58.46
54978;BME280;40873;47.522;19.106;2023-03-13T08:13:48;100525.72;;;6.94;58.30
54978;BME280;40873;47.522;19.106;2023-03-13T08:16:23;100517.84;;;7.14;57.14
54978;BME280;40873;47.522;19.106;2023-03-13T08:18:55;100509.50;;;7.46;56.79
54978;BME280;40873;47.522;19.106;2023-03-13T08:21:30;100508.97;;;7.37;57.05
54978;BME280;40873;47.522;19.106;2023-03-13T08:23:59;100503.84;;;7.74;55.59
54978;BME280;40873;47.522;19.106;2023-03-13T08:26:28;100497.78;;;8.09;55.26
54978;BME280;40873;47.522;19.106;2023-03-13T08:29:01;100499.50;;;7.73;55.57
54978;BME280;40873;47.522;19.106;2023-03-13T08:31:34;100497.09;;;7.68;55.44
54978;BME280;40873;47.522;19.106;2023-03-13T08:34:02;100494.63;;;8.20;54.69
54978;BME280;40873;47.522;19.106;2023-03-13T08:36:34;100487.81;;;8.16;53.52
54978;BME280;40873;47.522;19.106;2023-03-13T08:39:05;100493.25;;;8.30;53.79
54978;BME280;40873;47.522;19.106;2023-03-13T08:41:34;100491.59;;;8.10;53.95
54978;BME280;40873;47.522;19.106;2023-03-13T08:44:03;100488.03;;;8.47;53.24
54978;BME280;40873;47.522;19.106;2023-03-13T08:46:32;100500.81;;;8.19;54.45
54978;BME280;40873;47.522;19.106;2023-03-13T08:49:00;100485.22;;;8.69;52.36
54978;BME280;40873;47.522;19.106;2023-03-13T08:51:28;100479.56;;;8.42;52.49
54978;BME280;40873;47.522;19.106;2023-03-13T08:53:55;100478.53;;;8.45;51.86
54978;BME280;40873;47.522;19.106;2023-03-13T08:56:24;100475.41;;;8.56;52.00
54978;BME280;40873;47.522;19.106;2023-03-13T08:58:56;100465.56;;;8.76;51.74
54978;BME280;40873;47.522;19.106;2023-03-13T09:01:26;100464.59;;;9.12;49.95
54978;BME280;40873;47.522;19.106;2023-03-13T09:03:54;100475.00;;;8.63;50.42
54978;BME280;40873;47.522;19.106;2023-03-13T09:06:21;100478.06;;;8.54;50.63
54978;BME280;40873;47.522;19.106;2023-03-13T09:08:48;100467.00;;;8.82;50.00
54978;BME280;40873;47.522;19.106;2023-03-13T09:11:17;100466.41;;;9.27;49.36
54978;BME280;40873;47.522;19.106;2023-03-13T09:13:47;100463.59;;;9.30;48.32
54978;BME280;40873;47.522;19.106;2023-03-13T09:16:33;100456.41;;;9.34;48.30
54978;BME280;40873;47.522;19.106;2023-03-13T09:19:00;100451.34;;;9.63;48.06
54978;BME280;40873;47.522;19.106;2023-03-13T09:21:30;100455.25;;;9.55;47.50
54978;BME280;40873;47.522;19.106;2023-03-13T09:23:57;100453.25;;;10.22;45.83
54978;BME280;40873;47.522;19.106;2023-03-13T09:26:25;100453.44;;;10.19;45.77
54978;BME280;40873;47.522;19.106;2023-03-13T09:28:54;100450.25;;;10.30;46.14
54978;BME280;40873;47.522;19.106;2023-03-13T09:31:23;100453.88;;;10.27;45.85
54978;BME280;40873;47.522;19.106;2023-03-13T09:33:51;100443.56;;;10.38;45.62
54978;BME280;40873;47.522;19.106;2023-03-13T09:36:19;100435.66;;;10.68;45.42
54978;BME280;40873;47.522;19.106;2023-03-13T09:38:53;100431.56;;;10.93;44.80
54978;BME280;40873;47.522;19.106;2023-03-13T09:41:42;100433.41;;;10.91;44.42
54978;BME280;40873;47.522;19.106;2023-03-13T09:44:26;100426.16;;;10.94;43.86
54978;BME280;40873;47.522;19.106;2023-03-13T09:47:02;100424.75;;;11.32;43.23
54978;BME280;40873;47.522;19.106;2023-03-13T09:49:39;100422.28;;;11.57;42.65
54978;BME280;40873;47.522;19.106;2023-03-13T09:52:23;100420.97;;;11.50;42.44
54978;BME280;40873;47.522;19.106;2023-03-13T09:54:58;100420.38;;;11.59;42.88
54978;BME280;40873;47.522;19.106;2023-03-13T09:57:37;100426.31;;;11.77;43.00
54978;BME280;40873;47.522;19.106;2023-03-13T10:00:11;100411.25;;;11.50;43.47
54978;BME280;40873;47.522;19.106;2023-03-13T10:03:06;100408.75;;;11.76;42.99
54978;BME280;40873;47.522;19.106;2023-03-13T10:05:32;100399.59;;;11.67;42.81
54978;BME280;40873;47.522;19.106;2023-03-13T10:08:11;100396.03;;;12.22;42.21
54978;BME280;40873;47.522;19.106;2023-03-13T10:13:52;100391.16;;;12.81;42.06
54978;BME280;40873;47.522;19.106;2023-03-13T10:16:39;100377.38;;;12.63;41.75
54978;BME280;40873;47.522;19.106;2023-03-13T10:19:15;100378.53;;;12.98;42.14
54978;BME280;40873;47.522;19.106;2023-03-13T10:21:47;100383.72;;;12.99;41.04
54978;BME280;40873;47.522;19.106;2023-03-13T10:24:32;100381.94;;;13.62;40.43
54978;BME280;40873;47.522;19.106;2023-03-13T10:26:59;100385.31;;;13.02;40.81
54978;BME280;40873;47.522;19.106;2023-03-13T10:29:28;100371.13;;;13.15;40.70
54978;BME280;40873;47.522;19.106;2023-03-13T10:32:01;100381.84;;;12.88;41.31
54978;BME280;40873;47.522;19.106;2023-03-13T10:34:56;100370.69;;;12.58;41.87
54978;BME280;40873;47.522;19.106;2023-03-13T10:37:26;100375.88;;;13.10;40.40
54978;BME280;40873;47.522;19.106;2023-03-13T10:39:53;100379.22;;;13.51;39.95
54978;BME280;40873;47.522;19.106;2023-03-13T10:42:27;100368.50;;;13.76;39.54
54978;BME280;40873;47.522;19.106;2023-03-13T10:44:58;100364.75;;;13.05;40.08
54978;BME280;40873;47.522;19.106;2023-03-13T10:47:26;100373.97;;;12.49;41.62
54978;BME280;40873;47.522;19.106;2023-03-13T10:49:56;100359.38;;;12.69;41.42
54978;BME280;40873;47.522;19.106;2023-03-13T10:52:52;100355.81;;;13.44;40.13
54978;BME280;40873;47.522;19.106;2023-03-13T10:55:24;100363.66;;;13.46;39.35
54978;BME280;40873;47.522;19.106;2023-03-13T10:57:56;100343.09;;;14.33;38.43
54978;BME280;40873;47.522;19.106;2023-03-13T11:00:35;100347.47;;;13.62;38.28
54978;BME280;40873;47.522;19.106;2023-03-13T11:03:11;100338.94;;;13.69;38.79
54978;BME280;40873;47.522;19.106;2023-03-13T11:05:41;100333.03;;;13.66;38.70
54978;BME280;40873;47.522;19.106;2023-03-13T11:08:33;100329.84;;;13.50;38.90
54978;BME280;40873;47.522;19.106;2023-03-13T11:11:02;100325.78;;;13.57;39.11
54978;BME280;40873;47.522;19.106;2023-03-13T11:13:39;100316.63;;;13.37;39.60
54978;BME280;40873;47.522;19.106;2023-03-13T11:21:23;100334.56;;;13.57;38.63
54978;BME280;40873;47.522;19.106;2023-03-13T11:23:57;100318.72;;;14.04;38.73
54978;BME280;40873;47.522;19.106;2023-03-13T11:26:34;100311.06;;;14.80;37.33
54978;BME280;40873;47.522;19.106;2023-03-13T11:29:28;100308.94;;;14.39;37.86
54978;BME280;40873;47.522;19.106;2023-03-13T11:32:12;100296.69;;;14.72;37.40
54978;BME280;40873;47.522;19.106;2023-03-13T11:35:03;100291.38;;;14.49;38.01
54978;BME280;40873;47.522;19.106;2023-03-13T11:37:32;100287.16;;;15.03;37.25
54978;BME280;40873;47.522;19.106;2023-03-13T11:43:20;100277.38;;;14.81;37.43
54978;BME280;40873;47.522;19.106;2023-03-13T11:52:08;100273.06;;;14.69;37.97
54978;BME280;40873;47.522;19.106;2023-03-13T11:57:20;100270.47;;;15.23;37.08
54978;BME280;40873;47.522;19.106;2023-03-13T12:00:20;100256.22;;;15.56;36.41
54978;BME280;40873;47.522;19.106;2023-03-13T12:05:25;100241.59;;;15.19;37.02
54978;BME280;40873;47.522;19.106;2023-03-13T12:08:15;100245.78;;;15.76;36.29
54978;BME280;40873;47.522;19.106;2023-03-13T12:11:03;100227.03;;;15.98;35.62
54978;BME280;40873;47.522;19.106;2023-03-13T12:13:36;100223.91;;;14.86;37.47
54978;BME280;40873;47.522;19.106;2023-03-13T12:16:18;100219.03;;;15.77;36.06
54978;BME280;40873;47.522;19.106;2023-03-13T12:18:48;100212.81;;;16.39;35.38
54978;BME280;40873;47.522;19.106;2023-03-13T12:21:18;100199.72;;;16.78;34.40
54978;BME280;40873;47.522;19.106;2023-03-13T12:26:44;100196.28;;;17.65;33.34
54978;BME280;40873;47.522;19.106;2023-03-13T12:29:26;100199.94;;;17.44;33.37
54978;BME280;40873;47.522;19.106;2023-03-13T12:32:11;100202.72;;;17.04;34.12
54978;BME280;40873;47.522;19.106;2023-03-13T12:37:42;100193.41;;;18.89;31.74
54978;BME280;40873;47.522;19.106;2023-03-13T12:42:58;100173.88;;;19.24;31.00
54978;BME280;40873;47.522;19.106;2023-03-13T12:45:28;100163.94;;;20.22;28.95
54978;BME280;40873;47.522;19.106;2023-03-13T12:54:13;100133.81;;;19.94;29.37
54978;BME280;40873;47.522;19.106;2023-03-13T12:56:53;100132.09;;;18.60;31.44
54978;BME280;40873;47.522;19.106;2023-03-13T12:59:33;100120.06;;;16.94;33.43
54978;BME280;40873;47.522;19.106;2023-03-13T13:02:14;100127.41;;;18.34;32.34
54978;BME280;40873;47.522;19.106;2023-03-13T13:04:45;100113.75;;;19.28;31.14
54978;BME280;40873;47.522;19.106;2023-03-13T13:07:31;100099.09;;;18.97;31.30
54978;BME280;40873;47.522;19.106;2023-03-13T13:12:43;100104.84;;;21.49;28.34
54978;BME280;40873;47.522;19.106;2023-03-13T13:15:17;100117.88;;;19.40;30.05
54978;BME280;40873;47.522;19.106;2023-03-13T13:17:54;100122.03;;;18.99;31.09
54978;BME280;40873;47.522;19.106;2023-03-13T13:20:36;100117.88;;;19.05;31.55
54978;BME280;40873;47.522;19.106;2023-03-13T13:23:25;100120.25;;;19.08;31.65
54978;BME280;40873;47.522;19.106;2023-03-13T13:25:54;100130.88;;;17.22;33.84
54978;BME280;40873;47.522;19.106;2023-03-13T13:28:25;100127.22;;;16.44;35.67
54978;BME280;40873;47.522;19.106;2023-03-13T13:30:58;100101.56;;;17.03;35.03
54978;BME280;40873;47.522;19.106;2023-03-13T13:33:34;100103.38;;;18.07;33.79
54978;BME280;40873;47.522;19.106;2023-03-13T13:38:39;100089.44;;;16.10;37.22
54978;BME280;40873;47.522;19.106;2023-03-13T13:43:38;100083.34;;;15.98;37.29
54978;BME280;40873;47.522;19.106;2023-03-13T13:46:25;100074.75;;;16.15;37.88
54978;BME280;40873;47.522;19.106;2023-03-13T13:51:34;100080.88;;;15.34;39.13
54978;BME280;40873;47.522;19.106;2023-03-13T13:54:30;100068.56;;;15.33;39.42
54978;BME280;40873;47.522;19.106;2023-03-13T13:56:58;100054.78;;;15.49;39.25
54978;BME280;40873;47.522;19.106;2023-03-13T13:59:39;100048.19;;;15.22;39.40
54978;BME280;40873;47.522;19.106;2023-03-13T14:07:19;100032.34;;;15.42;39.15
54978;BME280;40873;47.522;19.106;2023-03-13T14:10:03;100045.75;;;15.30;39.73
54978;BME280;40873;47.522;19.106;2023-03-13T14:12:34;100046.34;;;15.44;39.68
54978;BME280;40873;47.522;19.106;2023-03-13T14:15:20;100056.44;;;15.40;39.89